Elliot Chaparral Reserve, California Weather observations

Data are for 10 minute period ending at time listed.
 Day   Time   Solar   Ave.   Ave.  Ave.  Vector  Max.   Baro.   Total    
  of    of     Rad.   Air    Rel.  Wind   Wind   Wind  Press.  Precip.   
Year   Day            Temp.  Hum.  Speed  Dir.   Gust                    
2014   (PST)  Kw/m2    F      %     mph   deg.    mph    mb.     in.     
-------------------------------------------------------------------------
 273   17:40   0.00   71.0    58    5.0   300     6.1   979.9    0.00 
 273   17:50   0.00   70.2    62    4.0   292     4.7   979.9    0.00 
 273   18:00   0.00   69.5    64    4.6   290     5.3   980.0    0.00 
 273   18:10   0.00   69.1    66    3.9   281     5.1   980.0    0.00 
 273   18:20   0.00   68.9    66    3.9   254     4.7   980.1    0.00 
 273   18:30   0.00   68.7    64    3.1   239     4.0   980.1    0.00 
 273   18:40   0.00   68.1    67    3.5   225     4.5   980.2    0.00 
 273   18:50   0.00   68.0    71    3.1   242     4.2   980.2    0.00 
 273   19:00   0.00   67.9    72    2.3   232     2.9   980.3    0.00 
 273   19:10   0.00   67.6    72    1.9   224     3.0   980.3    0.00 
 273   19:20   0.00   67.1    73    1.6   220     2.6   980.4    0.00 
 273   19:30   0.00   67.2    74    2.6   202     3.2   980.5    0.00 
 273   19:40   0.00   66.9    75    2.3   208     3.1   980.6    0.00 
 273   19:50   0.00   66.9    76    2.1   220     3.0   980.6    0.00 
 273   20:00   0.00   67.0    76    3.1   240     3.7   980.5    0.00 
 273   20:10   0.00   66.8    76    3.9   250     4.2   980.5    0.00 
 273   20:20   0.00   66.4    77    1.9   203     3.3   980.5    0.00 
 273   20:30   0.00   65.9    79    1.9   204     2.9   980.5    0.00 
 273   20:40   0.00   66.1    80    2.4   201     3.3   980.5    0.00 
 273   20:50   0.00   66.1    82    3.2   203     3.7   980.5    0.00 
 273   21:00   0.00   65.8    83    2.5   196     3.0   980.4    0.00 
 273   21:10   0.00   65.8    84    2.9   178     3.7   980.3    0.00 
 273   21:20   0.00   65.7    84    3.6   177     4.8   980.3    0.00 
 273   21:30   0.00   65.8    84    3.9   177     5.1   980.3    0.00 
 273   21:40   0.00   65.7    84    2.1   176     3.2   980.3    0.00 
 273   21:50   0.00   65.2    85    3.3   155     3.9   980.3    0.00 
 273   22:00   0.00   65.0    86    3.8   154     4.7   980.2    0.00 
 273   22:10   0.00   65.2    86    3.5   167     4.7   980.2    0.00 
 273   22:20   0.00   65.2    86    2.4   170     3.4   980.2    0.00 
 273   22:30   0.00   65.1    87    2.3   181     3.5   980.3    0.00 
 273   22:40   0.00   64.9    87    3.5   165     5.2   980.2    0.00 
 273   22:50   0.00   64.8    88    4.4   161     5.8   980.2    0.00 
 273   23:00   0.00   64.4    89    5.4   160     6.5   980.2    0.00 
 273   23:10   0.00   64.1    90    5.5   154     7.0   980.2    0.00 
 273   23:20   0.00   64.0    90    5.2   155     6.3   980.1    0.00 
 273   23:30   0.00   63.9    91    4.4   144     5.8   980.0    0.00 
 273   23:40   0.00   64.0    92    4.9   144     6.1   979.9    0.00 
 273   23:50   0.00   64.1    92    5.3   156     7.2   979.9    0.00 
 274    0:00   0.00   64.0    93    6.6   156     8.3   979.8    0.00 
 274    0:10   0.00   63.8    93    4.8   155     6.9   979.9    0.00 
 274    0:20   0.00   63.8    94    3.7   169     5.6   979.9    0.00 
 274    0:30   0.00   64.0    93    4.1   178     5.6   980.0    0.00 
 274    0:40   0.00   63.9    93    3.0   174     5.9   980.0    0.00 
 274    0:50   0.00   63.9    93    3.1   187     5.7   980.1    0.00 
 274    1:00   0.00   64.0    93    3.9   172     5.8   980.1    0.00 
 274    1:10   0.00   63.8    93    4.3   168     7.5   980.1    0.00 
 274    1:20   0.00   63.7    92    3.8   176     6.0   980.2    0.00 
 274    1:30   0.00   63.8    92    4.1   170     5.8   980.1    0.00 
 274    1:40   0.00   63.8    91    4.0   192     5.8   980.1    0.00 
 274    1:50   0.00   64.0    90    2.9   205     4.1   980.2    0.00 
 274    2:00   0.00   64.2    90    2.1   172     3.3   980.0    0.00 
 274    2:10   0.00   64.2    89    3.5   190     5.8   980.0    0.00 
 274    2:20   0.00   64.2    88    3.3   165     5.2   980.0    0.00 
 274    2:30   0.00   64.1    88    2.8   147     5.5   980.0    0.00 
 274    2:40   0.00   64.2    88    3.1   149     5.6   979.9    0.00 
 274    2:50   0.00   64.0    87    4.7   147     5.7   979.9    0.00 
 274    3:00   0.00   64.0    87    5.5   141     7.4   979.9    0.00 
 274    3:10   0.00   63.5    88    6.9   148     8.8   979.8    0.00 
 274    3:20   0.00   63.2    88    6.9   145     9.7   979.8    0.00 
 274    3:30   0.00   63.3    89    8.7   148    11.5   979.6    0.00 
 274    3:40   0.00   63.0    89    9.1   137    12.5   979.6    0.00 
 274    3:50   0.00   62.6    89    8.0   129    10.4   979.6    0.00 
 274    4:00   0.00   62.3    90    7.4   119    10.0   979.7    0.00 
 274    4:10   0.00   62.2    90    7.0   110     9.1   979.8    0.00 
 274    4:20   0.00   62.3    90    7.4   124     9.9   979.7    0.00 
 274    4:30   0.00   62.3    90    7.0   127     9.7   979.8    0.00 
 274    4:40   0.00   62.3    90    6.3   145     9.7   980.0    0.00 
 274    4:50   0.00   62.4    91    4.7   141     6.7   980.0    0.00 
 274    5:00   0.00   62.4    91    3.4   123     6.5   980.2    0.00 
 274    5:10   0.00   62.5    90    2.1   154     3.7   980.3    0.00 
 274    5:20   0.00   62.5    90    2.9   182     4.9   980.4    0.00 
 274    5:30   0.00   62.5    90    1.8   224     3.7   980.5    0.00 
 274    5:40   0.00   62.5    90    1.7   274     2.3   980.7    0.00 
 274    5:50   0.00   62.5    90    1.9   252     3.1   980.9    0.00 
 274    6:00   0.00   62.5    90    1.6   239     2.9   980.9    0.00 
 274    6:10   0.00   62.6    90    2.2   237     3.7   981.0    0.00 
 274    6:20   0.01   62.5    90    2.6   229     4.5   981.1    0.00 
 274    6:30   0.03   62.4    90    1.9   225     4.9   981.2    0.00 
 274    6:40   0.04   62.6    89    1.3   152     3.9   981.2    0.00 
 274    6:50   0.07   63.0    88    3.0   155     5.0   981.3    0.00 
 274    7:00   0.09   63.4    87    3.4   144     5.7   981.4    0.00 
 274    7:10   0.08   63.6    86    4.6   167     7.1   981.4    0.00 
 274    7:20   0.17   64.6    84    2.0   149     4.6   981.5    0.00 
 274    7:30   0.29   67.7    78    2.1   159     5.0   981.6    0.00 
 274    7:40   0.23   67.4    77    3.2   171     5.3   981.6    0.00 
 274    7:50   0.36   68.3    75    2.3   182     3.6   981.8    0.00 
 274    8:00   0.39   69.6    72    1.4   298     3.9   981.8    0.00 
 274    8:10   0.43   69.6    71    2.1   195     4.3   981.6    0.00 
 274    8:20   0.46   70.9    67    2.1   194     7.7   981.6    0.00 
 274    8:30   0.49   71.0    66    1.7    66     4.2   981.6    0.00 
 274    8:40   0.52   71.2    66    2.7   259     6.4   981.6    0.00 
 274    8:50   0.55   71.2    66    3.6   268     6.9   981.6    0.00 
 274    9:00   0.58   71.8    64    3.7   274     6.9   981.4    0.00 
 274    9:10   0.61   72.1    63    2.9   294     6.1   981.4    0.00 
 274    9:20   0.63   72.2    64    6.2   279     9.8   981.2    0.00 
 274    9:30   0.66   73.2    61    4.6   261     8.9   981.1    0.00 
 274    9:40   0.68   73.8    59    4.1   269     7.5   981.0    0.00 
 274    9:50   0.70   74.4    58    4.4   278     8.5   980.8    0.00 
 274   10:00   0.72   75.4    55    4.5   263     8.8   980.6    0.00 
 274   10:10   0.74   75.3    55    5.9   279     9.8   980.5    0.00 
 274   10:20   0.75   75.1    55    6.3   276    10.4   980.4    0.00 
 274   10:30   0.77   77.3    52    5.9   283    11.5   980.4    0.00 
 274   10:40   0.78   76.8    50    7.1   292    11.3   980.3    0.00 
 274   10:50   0.79   77.4    48    6.0   290    11.2   980.2    0.00 
 274   11:00   0.80   78.0    47    4.9   279    10.1   980.2    0.00 
 274   11:10   0.81   78.5    47    7.4   302    13.8   980.1    0.00 
 274   11:20   0.81   79.8    46    7.5   284    13.4   979.9    0.00 
 274   11:30   0.78   79.4    49    8.6   292    14.1   979.8    0.00 
 274   11:40   0.81   79.9    48    8.2   264    13.0   979.8    0.00 
 274   11:50   0.81   79.5    50    9.8   256    15.2   979.6    0.00 
 274   12:00   0.81   79.1    52   10.7   263    15.9   979.6    0.00 
 274   12:10   0.81   78.8    52   12.2   251    19.8   979.6    0.00 
 274   12:20   0.80   79.2    51   11.4   253    15.9   979.6    0.00 
 274   12:30   0.80   78.9    51   11.1   250    17.3   979.6    0.00 
 274   12:40   0.79   77.8    53   10.8   263    15.6   979.5    0.00 
 274   12:50   0.77   78.5    51   11.1   252    16.3   979.5    0.00 
 274   13:00   0.76   77.9    52   12.0   248    17.0   979.4    0.00 
 274   13:10   0.74   77.6    55   12.8   284    18.0   979.2    0.00 
 274   13:20   0.73   77.1    56   12.2   275    18.0   979.1    0.00 
 274   13:30   0.71   77.4    56   11.8   280    17.0   979.1    0.00 
 274   13:40   0.69   77.8    54   11.5   280    16.4   979.1    0.00 
 274   13:50   0.67   76.9    56   11.7   267    16.1   979.3    0.00 
 274   14:00   0.64   77.3    55   11.9   281    16.8   979.3    0.00 
 274   14:10   0.62   76.3    57   11.2   280    15.9   979.3    0.00 
 274   14:20   0.59   77.3    56   10.7   270    14.3   979.4    0.00 
 274   14:30   0.56   76.2    59   10.2   281    15.1   979.5    0.00 
 274   14:40   0.53   76.3    58    8.8   266    14.6   979.5    0.00 
 274   14:50   0.50   76.1    59    9.1   278    12.6   979.5    0.00 
 274   15:00   0.47   75.6    60    9.3   282    12.9   979.6    0.00 
 274   15:10   0.43   75.0    62    9.4   274    14.5   979.6    0.00 
 274   15:20   0.40   74.6    63    8.0   274    11.3   979.6    0.00 
 274   15:30   0.37   76.1    60    8.4   290    13.3   979.6    0.00 
 274   15:40   0.34   74.5    63    7.9   283    14.0   979.7    0.00 
 274   15:50   0.30   74.2    63    6.6   291    10.8   979.7    0.00 
 274   16:00   0.27   74.2    63    8.3   290    11.5   979.8    0.00 
 274   16:10   0.23   73.9    63    6.9   282    10.3   980.0    0.00 
 274   16:20   0.20   73.6    64    6.3   283     9.1   980.1    0.00 
 274   16:30   0.16   73.3    65    6.7   278     9.5   980.1    0.00 
 274   16:40   0.13   73.8    64    5.8   300     8.8   980.2    0.00 
 274   16:50   0.10   72.8    66    7.3   307    10.3   980.3    0.00 
 274   17:00   0.08   72.0    67    7.2   296    10.0   980.4    0.00 
 274   17:10   0.05   70.7    71    8.4   281    10.2   980.4    0.00 
 274   17:20   0.02   69.9    72    7.6   292    10.0   980.6    0.00 
 274   17:30   0.01   69.1    74    7.7   301    10.5   980.7    0.00 

Return to Elliot Chaparral Reserve graphs page.


Western Regional Climate Center,wrcc@dri.edu